Time;durP1;ratioP1;P1;durP2;ratioP2;P2;SDS_P1;SDS_P2;PMS_P1;PMS_P2;Temp;Humidity;BMP_temperature;BMP_pressure;BME280_temperature;BME280_humidity;BME280_pressure;Samples;Min_cycle;Max_cycle;Signal;HPM_P1;HPM_P2
2021/05/18 00:01:31;;;;;;;1.40;0.60;;;10.80;99.90;;;;;;5092430;28;20612;-40
2021/05/18 00:03:59;;;;;;;0.95;0.60;;;10.80;99.90;;;;;;5092640;28;20210;-39
2021/05/18 00:06:28;;;;;;;3.05;0.75;;;10.80;99.90;;;;;;5092308;28;20226;-39
2021/05/18 00:11:44;;;;;;;0.35;0.30;;;10.90;99.90;;;;;;5092200;28;20294;-39
2021/05/18 00:14:13;;;;;;;0.47;0.40;;;10.80;99.90;;;;;;5092400;28;20238;-39
2021/05/18 00:16:41;;;;;;;0.50;0.50;;;10.80;99.90;;;;;;5092212;28;20293;-39
2021/05/18 00:19:10;;;;;;;2.50;0.50;;;10.80;99.90;;;;;;5092430;28;20260;-39
2021/05/18 00:21:39;;;;;;;0.68;0.60;;;10.80;99.90;;;;;;5092013;28;20238;-39
2021/05/18 00:24:08;;;;;;;0.60;0.50;;;10.80;99.90;;;;;;5091772;28;20772;-39
2021/05/18 00:26:35;;;;;;;0.80;0.80;;;10.80;99.90;;;;;;5092301;28;20322;-39
2021/05/18 00:29:03;;;;;;;0.40;0.40;;;10.80;99.90;;;;;;5092071;28;20234;-39
2021/05/18 00:31:31;;;;;;;0.93;0.85;;;10.80;99.90;;;;;;5092148;28;20289;-40
2021/05/18 00:33:58;;;;;;;0.60;0.60;;;10.80;99.90;;;;;;5092011;28;20309;-40
2021/05/18 00:36:27;;;;;;;3.15;0.90;;;10.80;99.90;;;;;;5091810;28;20611;-39
2021/05/18 00:38:54;;;;;;;0.93;0.40;;;10.80;99.90;;;;;;5092132;28;20285;-39
2021/05/18 00:41:22;;;;;;;0.50;0.50;;;10.80;99.90;;;;;;5092123;28;20210;-38
2021/05/18 00:43:49;;;;;;;1.50;0.60;;;10.70;99.90;;;;;;5091925;28;20301;-39
2021/05/18 00:46:18;;;;;;;2.17;0.90;;;10.70;99.90;;;;;;5091797;28;20313;-39
2021/05/18 00:48:56;;;;;;;0.75;0.57;;;10.70;99.90;;;;;;5092074;28;20324;-39
2021/05/18 00:51:25;;;;;;;2.05;0.60;;;10.70;99.90;;;;;;5091807;28;20210;-38
2021/05/18 00:53:56;;;;;;;0.95;0.55;;;10.70;99.90;;;;;;5091840;28;20210;-38
2021/05/18 00:58:25;;;;;;;0.82;0.50;;;10.70;99.90;;;;;;5091835;28;20280;-38
2021/05/18 00:59:19;;;;;;;0.85;0.63;;;10.70;99.90;;;;;;5091617;28;20291;-38
2021/05/18 01:01:47;;;;;;;0.60;0.50;;;10.70;99.90;;;;;;5091748;28;20679;-39
2021/05/18 01:04:17;;;;;;;0.60;0.60;;;10.70;99.90;;;;;;5091709;28;20203;-38
2021/05/18 01:06:44;;;;;;;3.25;0.57;;;10.70;99.90;;;;;;5091755;28;20218;-38
2021/05/18 01:09:14;;;;;;;1.10;0.60;;;10.70;99.90;;;;;;5091627;28;20241;-38
2021/05/18 01:11:46;;;;;;;0.38;0.38;;;10.70;99.90;;;;;;5091436;28;20253;-38
2021/05/18 01:14:16;;;;;;;0.90;0.70;;;10.70;99.90;;;;;;5091611;28;20210;-41
2021/05/18 01:16:46;;;;;;;0.55;0.50;;;10.70;99.90;;;;;;5091655;28;20662;-39
2021/05/18 01:19:15;;;;;;;24.83;15.05;;;10.70;99.90;;;;;;5091474;28;20294;-38
2021/05/18 01:21:44;;;;;;;5.43;3.13;;;10.70;99.90;;;;;;5091565;28;20307;-39
2021/05/18 01:24:12;;;;;;;1.27;0.88;;;10.70;99.90;;;;;;5091764;28;20261;-38
2021/05/18 01:26:40;;;;;;;1.05;0.60;;;10.60;99.90;;;;;;5095507;28;20262;-40
2021/05/18 01:29:09;;;;;;;0.85;0.65;;;10.60;99.90;;;;;;5095306;28;20744;-39
2021/05/18 01:31:37;;;;;;;0.80;0.55;;;10.60;99.90;;;;;;5095401;28;20206;-38
2021/05/18 01:34:05;;;;;;;0.65;0.52;;;10.60;99.90;;;;;;5095363;28;20210;-39
2021/05/18 01:36:33;;;;;;;1.13;0.65;;;10.60;99.90;;;;;;5095270;28;20238;-38
2021/05/18 01:39:10;;;;;;;1.27;0.65;;;10.60;99.90;;;;;;5095088;28;20584;-38
2021/05/18 01:44:23;;;;;;;0.75;0.50;;;10.60;99.90;;;;;;5095379;28;20215;-39
2021/05/18 01:46:52;;;;;;;0.98;0.52;;;10.60;99.90;;;;;;5094963;28;20465;-39
2021/05/18 01:49:19;;;;;;;2.28;0.90;;;10.50;99.90;;;;;;5094946;28;20257;-39
2021/05/18 01:51:49;;;;;;;0.50;0.50;;;10.50;99.90;;;;;;5095216;28;20207;-39
2021/05/18 01:54:22;;;;;;;0.50;0.50;;;10.50;99.90;;;;;;5094799;28;20256;-38
2021/05/18 01:56:53;;;;;;;0.40;0.40;;;10.50;99.90;;;;;;5095013;28;20230;-38
2021/05/18 01:59:22;;;;;;;2.25;0.60;;;10.50;99.90;;;;;;5094939;28;20206;-38
2021/05/18 02:01:52;;;;;;;0.70;0.70;;;10.50;99.90;;;;;;5094688;28;20306;-38
2021/05/18 02:04:22;;;;;;;1.27;0.50;;;10.50;99.90;;;;;;5094865;28;20235;-39
2021/05/18 02:06:50;;;;;;;0.77;0.43;;;10.50;99.90;;;;;;5094757;28;20226;-39
2021/05/18 02:09:19;;;;;;;0.47;0.47;;;10.50;99.90;;;;;;5094608;28;20781;-38
2021/05/18 02:11:50;;;;;;;0.50;0.50;;;10.50;99.90;;;;;;5094300;28;20225;-39
2021/05/18 02:14:19;;;;;;;1.63;1.40;;;10.50;99.90;;;;;;5094315;28;20218;-40
2021/05/18 02:16:47;;;;;;;0.80;0.68;;;10.50;99.90;;;;;;5094555;28;20282;-40
2021/05/18 02:19:22;;;;;;;1.45;0.70;;;10.50;99.90;;;;;;5094374;28;20737;-39
2021/05/18 02:22:01;;;;;;;0.90;0.50;;;10.50;99.90;;;;;;5094307;28;20638;-39
2021/05/18 02:24:45;;;;;;;2.58;0.80;;;10.50;99.90;;;;;;5094105;28;20338;-39
2021/05/18 02:27:12;;;;;;;1.00;0.70;;;10.50;99.90;;;;;;5094128;28;20262;-42
2021/05/18 02:29:40;;;;;;;0.50;0.50;;;10.50;99.90;;;;;;5094089;28;20253;-41
2021/05/18 02:32:07;;;;;;;0.95;0.80;;;10.50;99.90;;;;;;5094133;28;20294;-39
2021/05/18 02:34:35;;;;;;;1.02;0.77;;;10.40;99.90;;;;;;5094044;28;20230;-39
2021/05/18 02:37:04;;;;;;;0.90;0.73;;;10.50;99.90;;;;;;5093573;28;20681;-39
2021/05/18 02:39:32;;;;;;;0.68;0.68;;;10.40;99.90;;;;;;5093886;28;20261;-39
2021/05/18 02:41:59;;;;;;;0.98;0.57;;;10.40;99.90;;;;;;5093997;28;20271;-40
2021/05/18 02:44:31;;;;;;;1.75;0.60;;;10.40;99.90;;;;;;5093791;28;20673;-40
2021/05/18 02:49:45;;;;;;;3.08;0.68;;;10.30;99.90;;;;;;5093807;28;20211;-39
2021/05/18 02:52:13;;;;;;;2.35;0.65;;;10.30;99.90;;;;;;5093652;28;20297;-40
2021/05/18 02:54:45;;;;;;;1.17;0.70;;;10.30;99.90;;;;;;5093715;28;20245;-39
2021/05/18 02:57:14;;;;;;;0.50;0.50;;;10.30;99.90;;;;;;5093526;28;20210;-39
2021/05/18 02:59:42;;;;;;;1.63;0.63;;;10.30;99.90;;;;;;5093612;28;20206;-39
2021/05/18 03:02:09;;;;;;;0.88;0.70;;;10.30;99.90;;;;;;5093466;28;20233;-42
2021/05/18 03:04:37;;;;;;;1.65;0.60;;;10.40;99.90;;;;;;5093325;28;20297;-39
2021/05/18 03:07:04;;;;;;;0.60;0.60;;;10.30;99.90;;;;;;5093148;28;20700;-40
2021/05/18 03:09:32;;;;;;;1.05;0.70;;;10.40;99.90;;;;;;5093345;28;20257;-39
2021/05/18 03:12:00;;;;;;;1.10;0.60;;;10.40;99.90;;;;;;5093465;28;20284;-40
2021/05/18 03:14:28;;;;;;;1.38;0.90;;;10.40;99.90;;;;;;5093515;28;20640;-40
2021/05/18 03:16:55;;;;;;;1.00;0.65;;;10.40;99.90;;;;;;5093347;28;20690;-40
2021/05/18 03:19:23;;;;;;;1.33;0.93;;;10.40;99.90;;;;;;5093411;28;20294;-39
2021/05/18 03:21:50;;;;;;;1.20;0.70;;;10.40;99.90;;;;;;5093276;28;20661;-39
2021/05/18 03:24:18;;;;;;;0.65;0.65;;;10.50;99.90;;;;;;5093209;28;20249;-39
2021/05/18 03:26:47;;;;;;;1.48;0.73;;;10.50;99.90;;;;;;5093353;28;20632;-40
2021/05/18 03:29:20;;;;;;;0.95;0.80;;;10.50;99.90;;;;;;5093048;28;20647;-41
2021/05/18 03:34:36;;;;;;;0.60;0.50;;;10.50;99.90;;;;;;5093299;28;20264;-40
2021/05/18 03:37:10;;;;;;;1.15;0.98;;;10.50;99.90;;;;;;5092947;28;20203;-41
2021/05/18 03:39:38;;;;;;;0.75;0.50;;;10.60;99.90;;;;;;5092948;28;20748;-40
2021/05/18 03:42:09;;;;;;;1.52;0.80;;;10.60;99.90;;;;;;5093138;28;20207;-40
2021/05/18 03:44:50;;;;;;;0.80;0.80;;;10.60;99.90;;;;;;5092886;28;20242;-38
2021/05/18 03:53:00;;;;;;;1.60;0.98;;;10.60;99.90;;;;;;5092819;28;20299;-39
2021/05/18 04:04:07;;;;;;;3.53;1.58;;;10.50;99.90;;;;;;5083416;28;20202;-40
2021/05/18 04:17:35;;;;;;;3.25;1.23;;;10.70;99.90;;;;;;5092006;28;20660;-39
2021/05/18 04:20:15;;;;;;;1.42;0.95;;;10.80;99.90;;;;;;5091982;28;20297;-39
2021/05/18 04:22:57;;;;;;;0.68;0.50;;;10.80;99.90;;;;;;5091957;28;20246;-40
2021/05/18 04:25:46;;;;;;;1.52;1.05;;;10.80;99.90;;;;;;5091795;28;20239;-40
2021/05/18 04:39:27;;;;;;;1.08;0.98;;;10.90;99.90;;;;;;5092493;28;20210;-38
2021/05/18 04:50:33;;;;;;;1.58;1.10;;;10.90;99.90;;;;;;5091804;28;20267;-39
2021/05/18 04:53:10;;;;;;;2.15;1.35;;;10.90;99.90;;;;;;5091663;28;20683;-39
2021/05/18 05:01:22;;;;;;;2.58;1.40;;;11.20;99.90;;;;;;5095889;28;20210;-40
2021/05/18 05:03:59;;;;;;;1.55;1.05;;;11.30;99.90;;;;;;5096007;28;20214;-40
2021/05/18 05:06:43;;;;;;;0.68;0.60;;;11.40;99.90;;;;;;5095820;28;20242;-40
2021/05/18 05:09:21;;;;;;;1.00;0.70;;;11.50;99.90;;;;;;5095569;28;20254;-40
2021/05/18 05:14:38;;;;;;;2.90;1.58;;;11.50;99.90;;;;;;5095886;28;20271;-41
2021/05/18 05:17:06;;;;;;;2.35;1.58;;;11.50;99.90;;;;;;5095324;28;20284;-39
2021/05/18 05:19:34;;;;;;;1.38;0.90;;;11.70;99.90;;;;;;5095406;28;20545;-40
2021/05/18 05:22:03;;;;;;;4.82;1.88;;;11.80;99.90;;;;;;5095529;28;20210;-40
2021/05/18 05:24:32;;;;;;;2.60;1.50;;;11.80;99.90;;;;;;5095607;28;20314;-41
2021/05/18 05:27:00;;;;;;;1.95;0.98;;;11.80;99.90;;;;;;5095787;28;20259;-41
2021/05/18 05:29:28;;;;;;;2.78;1.63;;;11.80;99.90;;;;;;5095497;28;20656;-40
2021/05/18 05:31:56;;;;;;;2.63;1.63;;;11.70;99.90;;;;;;5095458;28;20238;-41
2021/05/18 05:34:24;;;;;;;1.17;1.00;;;11.70;99.90;;;;;;5095394;28;20206;-40
2021/05/18 05:36:51;;;;;;;2.25;1.35;;;11.60;99.90;;;;;;5095371;28;20253;-40
2021/05/18 05:39:22;;;;;;;2.97;1.40;;;11.50;99.90;;;;;;5095360;28;20224;-42
2021/05/18 05:41:52;;;;;;;2.15;1.27;;;11.40;99.90;;;;;;5095121;28;20279;-40
2021/05/18 05:44:19;;;;;;;5.25;0.80;;;11.30;99.90;;;;;;5095002;28;20293;-40
2021/05/18 05:46:47;;;;;;;2.72;1.58;;;11.20;99.90;;;;;;5095240;28;20302;-39
2021/05/18 05:49:14;;;;;;;1.23;0.75;;;11.20;99.90;;;;;;5095244;28;20291;-39
2021/05/18 05:51:42;;;;;;;1.85;1.20;;;11.10;99.90;;;;;;5095267;28;20203;-38
2021/05/18 05:54:09;;;;;;;2.17;1.42;;;11.10;99.90;;;;;;5094991;28;20220;-38
2021/05/18 05:56:38;;;;;;;1.15;0.90;;;11.00;99.90;;;;;;5094997;28;20366;-38
2021/05/18 05:59:08;;;;;;;4.03;1.85;;;11.00;99.90;;;;;;5094884;28;20202;-39
2021/05/18 06:01:35;;;;;;;2.65;1.63;;;11.00;99.90;;;;;;5094922;28;20609;-39
2021/05/18 06:04:03;;;;;;;0.63;0.60;;;11.10;99.90;;;;;;5094944;28;20297;-41
2021/05/18 06:06:31;;;;;;;2.65;1.50;;;11.20;99.90;;;;;;5094839;28;20242;-41
2021/05/18 06:08:58;;;;;;;3.85;1.88;;;11.50;99.90;;;;;;5095123;28;20227;-42
2021/05/18 06:11:32;;;;;;;1.48;0.90;;;11.60;99.90;;;;;;5094113;28;20203;-38
2021/05/18 06:14:08;;;;;;;0.68;0.65;;;11.60;99.90;;;;;;5095262;28;20289;-38
2021/05/18 06:46:57;;;;;;;2.05;1.20;;;12.70;99.90;;;;;;5094166;28;20252;-40
2021/05/18 06:49:25;;;;;;;1.67;0.80;;;12.70;99.90;;;;;;5093812;28;20305;-40
2021/05/18 06:51:53;;;;;;;1.33;0.85;;;12.60;99.90;;;;;;5094181;28;20255;-38
2021/05/18 06:54:20;;;;;;;1.23;1.00;;;12.60;99.90;;;;;;5093762;28;20206;-39
2021/05/18 06:56:53;;;;;;;0.80;0.75;;;12.60;99.90;;;;;;5094336;28;20225;-47
2021/05/18 07:02:07;;;;;;;0.88;0.70;;;13.10;99.90;;;;;;5093545;28;20673;-39
2021/05/18 07:04:37;;;;;;;0.60;0.60;;;13.20;99.90;;;;;;5093566;28;20289;-38
2021/05/18 07:07:17;;;;;;;1.88;0.80;;;13.30;99.90;;;;;;5093429;28;20238;-39
2021/05/18 07:09:45;;;;;;;0.60;0.50;;;13.40;99.90;;;;;;5093183;28;20231;-40
2021/05/18 07:12:13;;;;;;;1.30;0.65;;;13.40;99.90;;;;;;5093323;28;20253;-41
2021/05/18 07:14:40;;;;;;;0.93;0.77;;;13.50;99.90;;;;;;5093400;28;20407;-42
2021/05/18 07:17:09;;;;;;;0.60;0.60;;;13.60;99.90;;;;;;5092998;28;20202;-43
2021/05/18 07:19:36;;;;;;;1.17;0.70;;;13.80;99.90;;;;;;5093219;28;20226;-42
2021/05/18 07:22:04;;;;;;;1.10;0.60;;;13.80;99.90;;;;;;5093409;28;20242;-42
2021/05/18 07:24:31;;;;;;;1.33;0.90;;;13.80;99.90;;;;;;5092919;28;20235;-42
2021/05/18 07:27:00;;;;;;;1.52;0.70;;;13.70;99.90;;;;;;5093116;28;20302;-41
2021/05/18 07:29:27;;;;;;;1.92;1.70;;;13.70;99.90;;;;;;5092669;28;20265;-42
2021/05/18 07:31:55;;;;;;;1.23;0.70;;;13.70;99.90;;;;;;5093045;28;20215;-40
2021/05/18 07:34:23;;;;;;;1.02;0.77;;;13.90;99.90;;;;;;5093026;28;20210;-41
2021/05/18 07:36:50;;;;;;;1.10;0.80;;;14.00;99.90;;;;;;5092739;28;20207;-41
2021/05/18 07:39:18;;;;;;;3.53;0.63;;;14.00;99.90;;;;;;5092668;28;20261;-42
2021/05/18 07:41:45;;;;;;;0.93;0.82;;;14.00;99.90;;;;;;5092877;28;20206;-39
2021/05/18 07:44:13;;;;;;;0.82;0.80;;;13.80;99.90;;;;;;5092658;28;20768;-39
2021/05/18 07:46:42;;;;;;;1.08;0.70;;;13.70;99.90;;;;;;5092673;28;20207;-42
2021/05/18 07:49:24;;;;;;;0.70;0.70;;;13.60;99.90;;;;;;5092507;28;20260;-41
2021/05/18 08:00:22;;;;;;;1.20;0.70;;;13.40;99.90;;;;;;5092085;28;20298;-42
2021/05/18 08:05:35;;;;;;;2.47;1.73;;;13.50;99.90;;;;;;5092149;28;20253;-41
2021/05/18 08:08:04;;;;;;;1.02;0.65;;;13.50;99.90;;;;;;5091799;28;20214;-40
2021/05/18 08:10:45;;;;;;;0.60;0.50;;;13.50;99.90;;;;;;5091894;28;20269;-39
2021/05/18 08:13:13;;;;;;;0.63;0.55;;;13.40;99.90;;;;;;5091813;28;20257;-39
2021/05/18 08:16:12;;;;;;;1.20;0.52;;;13.30;99.90;;;;;;5092260;28;20207;-39
2021/05/18 08:21:52;;;;;;;0.77;0.65;;;13.20;99.90;;;;;;5091843;28;20644;-39
2021/05/18 08:53:09;;;;;;;0.47;0.47;;;12.80;99.90;;;;;;5058171;28;20273;-40
2021/05/18 10:35:00;;;;;;;1.92;0.80;;;12.60;99.90;;;;;;5094136;28;20271;-40
2021/05/18 10:37:36;;;;;;;0.98;0.70;;;12.90;99.90;;;;;;5094157;28;20369;-41
2021/05/18 10:40:31;;;;;;;1.20;1.00;;;13.10;99.90;;;;;;5094317;28;20202;-40
2021/05/18 10:43:22;;;;;;;0.75;0.60;;;13.10;99.90;;;;;;5094210;28;20294;-40
2021/05/18 10:46:05;;;;;;;2.17;1.02;;;13.10;99.90;;;;;;5094097;28;20217;-40
2021/05/18 10:49:01;;;;;;;1.13;0.77;;;13.20;99.90;;;;;;5094417;28;20253;-40
2021/05/18 10:51:55;;;;;;;2.95;0.77;;;13.30;99.90;;;;;;5093746;28;20218;-41
2021/05/18 10:54:30;;;;;;;1.10;0.65;;;13.40;99.90;;;;;;5093670;28;20643;-40
2021/05/18 10:57:10;;;;;;;2.38;0.95;;;13.50;99.90;;;;;;5093443;28;20202;-41
2021/05/18 10:59:39;;;;;;;1.02;0.73;;;13.70;99.90;;;;;;5094791;28;20209;-40
2021/05/18 11:02:10;;;;;;;0.98;0.70;;;13.90;99.90;;;;;;5092650;28;20234;-41
2021/05/18 11:04:39;;;;;;;0.60;0.55;;;14.00;99.90;;;;;;5093576;28;20235;-41
2021/05/18 11:07:09;;;;;;;0.98;0.70;;;14.10;99.90;;;;;;5093567;28;20210;-40
2021/05/18 11:09:38;;;;;;;0.68;0.60;;;14.20;99.90;;;;;;5093269;28;20222;-41
2021/05/18 11:12:12;;;;;;;1.13;0.80;;;14.30;99.90;;;;;;5093509;28;20217;-40
2021/05/18 11:14:48;;;;;;;0.68;0.55;;;14.40;99.90;;;;;;5093691;28;20207;-39
2021/05/18 11:17:21;;;;;;;2.00;1.17;;;14.50;99.90;;;;;;5093550;28;20210;-40
2021/05/18 11:19:52;;;;;;;1.73;1.08;;;14.70;99.90;;;;;;5093239;28;20203;-40
2021/05/18 11:23:19;;;;;;;3.85;1.55;;;14.80;99.90;;;;;;5093842;28;20217;-40
2021/05/18 11:25:08;;;;;;;0.88;0.70;;;14.90;99.90;;;;;;5093660;28;20238;-40
2021/05/18 11:27:38;;;;;;;1.85;0.73;;;14.90;99.90;;;;;;5093761;28;20686;-40
2021/05/18 11:30:08;;;;;;;2.40;0.90;;;15.00;99.90;;;;;;5093346;28;20223;-40
2021/05/18 11:32:36;;;;;;;1.90;0.65;;;15.10;99.90;;;;;;5092779;28;20206;-40
2021/05/18 11:35:06;;;;;;;1.65;0.60;;;15.20;99.90;;;;;;5092728;28;20207;-41
2021/05/18 11:37:34;;;;;;;0.93;0.70;;;15.40;99.70;;;;;;5092921;28;20215;-41
2021/05/18 11:40:16;;;;;;;2.70;0.68;;;15.40;99.50;;;;;;5092645;28;20675;-40
2021/05/18 11:42:45;;;;;;;1.67;0.73;;;15.60;99.00;;;;;;5092325;28;20218;-40
2021/05/18 11:45:16;;;;;;;0.50;0.47;;;15.80;99.00;;;;;;5092811;28;20288;-41
2021/05/18 11:47:45;;;;;;;0.40;0.40;;;15.80;98.20;;;;;;5092365;28;20312;-41
2021/05/18 11:50:26;;;;;;;2.40;0.57;;;15.60;98.20;;;;;;5092401;28;20642;-41
2021/05/18 11:52:55;;;;;;;4.30;2.95;;;15.40;98.10;;;;;;5092468;28;20698;-40
2021/05/18 11:55:29;;;;;;;1.55;0.60;;;15.30;98.50;;;;;;5092548;28;20692;-40
2021/05/18 11:57:59;;;;;;;0.50;0.50;;;15.20;98.40;;;;;;5092893;28;20203;-39
2021/05/18 12:00:32;;;;;;;0.52;0.52;;;15.10;98.20;;;;;;5092732;28;20293;-41
2021/05/18 12:03:10;;;;;;;1.48;1.27;;;15.10;98.30;;;;;;5092956;28;20213;-40
2021/05/18 12:05:51;;;;;;;1.00;0.80;;;15.00;98.60;;;;;;5093668;28;20561;-40
2021/05/18 12:08:30;;;;;;;3.10;2.15;;;15.00;98.50;;;;;;5092464;28;20708;-40
2021/05/18 12:11:14;;;;;;;1.05;0.77;;;15.00;98.40;;;;;;5092562;28;20231;-40
2021/05/18 12:13:43;;;;;;;0.75;0.75;;;15.20;98.10;;;;;;5092279;28;20557;-40
2021/05/18 12:16:13;;;;;;;1.15;0.60;;;15.30;97.70;;;;;;5092283;28;20234;-40
2021/05/18 12:18:42;;;;;;;1.48;0.80;;;15.40;97.10;;;;;;5092286;28;20235;-43
2021/05/18 12:21:15;;;;;;;1.05;0.80;;;15.60;96.70;;;;;;5092310;28;20202;-40
2021/05/18 12:23:44;;;;;;;0.45;0.43;;;15.80;96.50;;;;;;5092525;28;20307;-41
2021/05/18 12:26:14;;;;;;;1.02;0.90;;;16.00;96.40;;;;;;5091973;28;20242;-40
2021/05/18 12:28:57;;;;;;;2.15;0.82;;;16.20;96.20;;;;;;5091989;28;20687;-40
2021/05/18 12:31:29;;;;;;;2.15;1.33;;;16.30;95.40;;;;;;5091997;28;20724;-40
2021/05/18 12:33:57;;;;;;;2.30;0.77;;;16.30;95.30;;;;;;5092284;28;20264;-45
2021/05/18 12:36:25;;;;;;;6.28;1.13;;;16.50;95.40;;;;;;5091986;28;20259;-41
2021/05/18 12:39:06;;;;;;;2.00;1.80;;;16.60;94.80;;;;;;5091920;28;20214;-40
2021/05/18 12:41:57;;;;;;;0.85;0.70;;;16.60;94.50;;;;;;5092036;28;20237;-40
2021/05/18 12:44:28;;;;;;;0.88;0.65;;;16.70;93.80;;;;;;5092402;28;20210;-40
2021/05/18 12:46:59;;;;;;;2.47;0.50;;;16.70;94.30;;;;;;5092077;28;20315;-40
2021/05/18 12:49:29;;;;;;;2.45;1.10;;;16.80;94.20;;;;;;5091748;28;20206;-40
2021/05/18 12:52:15;;;;;;;0.73;0.52;;;16.70;94.00;;;;;;5092146;28;20297;-41
2021/05/18 12:54:55;;;;;;;2.70;0.75;;;16.50;93.70;;;;;;5092187;28;20217;-40
2021/05/18 12:57:24;;;;;;;1.55;0.80;;;16.30;94.40;;;;;;5091984;28;20248;-38
2021/05/18 13:00:09;;;;;;;1.90;0.93;;;16.00;95.50;;;;;;5091976;28;20203;-39
2021/05/18 13:02:39;;;;;;;0.52;0.50;;;15.60;96.90;;;;;;5092050;28;20214;-39
2021/05/18 13:05:10;;;;;;;2.58;0.52;;;15.10;97.70;;;;;;5091800;28;20304;-42
2021/05/18 13:07:39;;;;;;;0.45;0.40;;;14.70;98.70;;;;;;5092271;28;20305;-38
2021/05/18 13:10:08;;;;;;;0.80;0.70;;;14.20;99.60;;;;;;5091925;28;20230;-39
2021/05/18 13:12:36;;;;;;;0.60;0.60;;;13.80;99.90;;;;;;5091668;28;20730;-38
2021/05/18 13:15:08;;;;;;;1.92;0.75;;;13.40;99.90;;;;;;5092179;28;20215;-38
2021/05/18 13:17:36;;;;;;;1.20;0.63;;;13.10;99.90;;;;;;5091090;28;20301;-38
2021/05/18 13:20:07;;;;;;;1.00;0.80;;;12.90;99.90;;;;;;5093536;28;20236;-38
2021/05/18 13:22:38;;;;;;;2.45;1.00;;;12.70;99.90;;;;;;5095573;28;20251;-38
2021/05/18 13:27:55;;;;;;;2.70;1.10;;;12.80;99.90;;;;;;5095382;28;20203;-39
2021/05/18 13:30:26;;;;;;;2.17;1.30;;;12.90;99.90;;;;;;5095410;28;20623;-40
2021/05/18 13:32:55;;;;;;;1.70;1.60;;;12.90;99.90;;;;;;5095330;28;20701;-43
2021/05/18 13:35:24;;;;;;;1.10;1.00;;;12.80;99.90;;;;;;5095279;28;20589;-39
2021/05/18 13:37:52;;;;;;;2.10;1.42;;;12.70;99.90;;;;;;5095098;28;20517;-39
2021/05/18 13:40:20;;;;;;;2.22;2.03;;;12.50;99.90;;;;;;5095054;28;20564;-39
2021/05/18 13:42:50;;;;;;;2.70;1.20;;;12.40;99.90;;;;;;5095194;28;20211;-39
2021/05/18 13:45:19;;;;;;;1.48;1.20;;;12.30;99.90;;;;;;5094993;28;20211;-39
2021/05/18 13:47:49;;;;;;;1.48;1.10;;;12.20;99.90;;;;;;5095162;28;20312;-39
2021/05/18 13:50:17;;;;;;;0.95;0.88;;;12.20;99.90;;;;;;5094984;28;20258;-39
2021/05/18 13:52:45;;;;;;;2.05;0.90;;;12.30;99.90;;;;;;5094960;28;20359;-38
2021/05/18 13:55:13;;;;;;;1.95;0.95;;;12.40;99.90;;;;;;5095066;28;20208;-41
2021/05/18 13:57:41;;;;;;;0.70;0.70;;;12.40;99.90;;;;;;5094791;28;20584;-39
2021/05/18 14:00:10;;;;;;;1.50;0.90;;;12.40;99.90;;;;;;5094950;28;20298;-38
2021/05/18 14:02:40;;;;;;;3.70;0.90;;;12.20;99.90;;;;;;5095206;28;20207;-38
2021/05/18 14:05:11;;;;;;;2.85;2.65;;;12.20;99.90;;;;;;5094990;28;20242;-39
2021/05/18 14:10:48;;;;;;;1.25;1.02;;;12.90;99.90;;;;;;5069934;28;20573;-38
2021/05/18 14:13:16;;;;;;;1.08;0.90;;;13.80;99.90;;;;;;5095173;28;20206;-40
2021/05/18 14:15:44;;;;;;;1.23;0.77;;;14.40;99.90;;;;;;5094645;28;20211;-40
2021/05/18 14:18:12;;;;;;;1.13;1.05;;;14.90;99.90;;;;;;5094604;28;20211;-39
2021/05/18 14:20:41;;;;;;;2.40;1.02;;;15.30;99.90;;;;;;5094634;28;20234;-39
2021/05/18 14:23:10;;;;;;;2.13;1.15;;;15.50;99.90;;;;;;5094399;28;20211;-40
2021/05/18 14:25:38;;;;;;;3.03;1.52;;;15.70;99.70;;;;;;5094174;28;20262;-42
2021/05/18 14:28:26;;;;;;;1.25;1.00;;;16.00;99.40;;;;;;5094098;28;20206;-39
2021/05/18 14:30:53;;;;;;;1.30;1.00;;;16.30;98.40;;;;;;5093634;28;20314;-40
2021/05/18 14:33:22;;;;;;;1.17;0.60;;;16.40;98.30;;;;;;5094308;28;20210;-39
2021/05/18 14:35:51;;;;;;;0.32;0.32;;;16.50;97.90;;;;;;5094056;28;20711;-39
2021/05/18 14:38:21;;;;;;;1.60;0.60;;;16.50;97.90;;;;;;5094396;28;20258;-39
2021/05/18 14:41:07;;;;;;;2.13;0.85;;;16.70;97.40;;;;;;5094380;28;20327;-39
2021/05/18 14:46:23;;;;;;;0.60;0.47;;;17.10;96.70;;;;;;5094163;28;20207;-40
2021/05/18 14:55:00;;;;;;;1.30;0.70;;;17.60;95.40;;;;;;5085576;28;20244;-40
2021/05/18 14:57:28;;;;;;;1.13;0.60;;;17.90;94.50;;;;;;5093736;28;20242;-39
2021/05/18 14:59:55;;;;;;;0.60;0.60;;;18.20;93.80;;;;;;5094046;28;20206;-39
2021/05/18 15:02:23;;;;;;;0.60;0.60;;;18.50;92.90;;;;;;5093764;28;20661;-39
2021/05/18 15:04:50;;;;;;;1.85;0.47;;;18.60;92.50;;;;;;5093017;28;20210;-39
2021/05/18 15:07:19;;;;;;;0.90;0.73;;;18.90;91.90;;;;;;5093563;28;20218;-39
2021/05/18 15:09:51;;;;;;;0.40;0.40;;;19.00;91.00;;;;;;5093894;28;20259;-39
2021/05/18 15:12:18;;;;;;;0.65;0.52;;;18.90;90.70;;;;;;5093443;28;20310;-39
2021/05/18 15:14:46;;;;;;;1.48;0.50;;;18.80;90.00;;;;;;5094081;28;20293;-39
2021/05/18 15:17:14;;;;;;;0.47;0.40;;;18.90;89.50;;;;;;5093526;28;20211;-39
2021/05/18 15:19:42;;;;;;;0.50;0.50;;;19.00;88.10;;;;;;5093292;28;20591;-39
2021/05/18 15:22:09;;;;;;;0.65;0.40;;;18.90;87.00;;;;;;5093285;28;20214;-40
2021/05/18 15:24:38;;;;;;;1.05;0.40;;;18.90;85.20;;;;;;5092977;28;20568;-38
2021/05/18 15:27:08;;;;;;;0.85;0.32;;;19.00;84.10;;;;;;5093227;28;20235;-39
2021/05/18 15:29:35;;;;;;;0.50;0.50;;;19.10;83.90;;;;;;5093057;28;20242;-42
2021/05/18 15:32:05;;;;;;;1.67;0.45;;;19.10;82.80;;;;;;5092931;28;20576;-40
2021/05/18 15:34:34;;;;;;;0.75;0.50;;;19.30;81.70;;;;;;5093377;28;20238;-39
2021/05/18 15:37:02;;;;;;;0.32;0.32;;;19.60;78.90;;;;;;5093286;28;20289;-40
2021/05/18 15:39:30;;;;;;;2.80;2.58;;;19.70;77.90;;;;;;5093089;28;20238;-40
2021/05/18 15:41:58;;;;;;;0.65;0.60;;;19.90;76.20;;;;;;5092968;28;20206;-39
2021/05/18 15:44:26;;;;;;;0.75;0.60;;;20.20;75.20;;;;;;5091947;28;20248;-39
2021/05/18 15:46:53;;;;;;;0.98;0.40;;;20.40;73.60;;;;;;5093007;28;20349;-39
2021/05/18 15:49:22;;;;;;;1.98;0.50;;;20.50;72.10;;;;;;5092808;28;20290;-39
2021/05/18 15:51:49;;;;;;;0.40;0.35;;;20.40;72.50;;;;;;5092893;28;20354;-39
2021/05/18 15:54:17;;;;;;;1.88;1.00;;;20.50;71.60;;;;;;5092750;28;20213;-39
2021/05/18 15:56:44;;;;;;;1.17;0.65;;;20.50;71.50;;;;;;5092630;28;20218;-39
2021/05/18 15:59:13;;;;;;;1.55;0.77;;;20.40;71.60;;;;;;5092461;28;20206;-39
2021/05/18 16:01:41;;;;;;;0.90;0.50;;;20.70;71.20;;;;;;5092518;28;20211;-39
2021/05/18 16:04:10;;;;;;;1.75;0.50;;;21.30;69.80;;;;;;5092710;28;20294;-39
2021/05/18 16:06:41;;;;;;;0.30;0.30;;;21.70;68.20;;;;;;5092592;28;20289;-40
2021/05/18 16:09:10;;;;;;;0.60;0.40;;;22.00;67.50;;;;;;5092485;28;20214;-41
2021/05/18 16:11:38;;;;;;;1.10;0.65;;;22.40;66.70;;;;;;5092322;28;20693;-41
2021/05/18 16:14:06;;;;;;;1.48;0.68;;;22.40;65.50;;;;;;5092678;28;20293;-39
2021/05/18 16:16:35;;;;;;;0.73;0.40;;;21.70;66.30;;;;;;5092287;28;20214;-39
2021/05/18 16:19:03;;;;;;;1.02;0.50;;;20.90;67.30;;;;;;5092503;28;20214;-39
2021/05/18 16:21:32;;;;;;;1.13;0.52;;;20.40;69.50;;;;;;5092315;28;20234;-39
2021/05/18 16:24:00;;;;;;;0.55;0.50;;;20.90;69.50;;;;;;5091914;28;20210;-38
2021/05/18 16:26:30;;;;;;;0.25;0.25;;;21.80;67.10;;;;;;5092320;28;20572;-39
2021/05/18 16:28:59;;;;;;;0.52;0.40;;;22.40;65.10;;;;;;5091833;28;20298;-41
2021/05/18 16:31:28;;;;;;;1.17;0.57;;;21.90;65.40;;;;;;5092142;28;20234;-39
2021/05/18 16:34:04;;;;;;;0.98;0.50;;;21.80;66.20;;;;;;5092569;28;20280;-40
2021/05/18 16:36:32;;;;;;;0.30;0.30;;;22.60;65.50;;;;;;5092983;28;20216;-43
2021/05/18 16:39:00;;;;;;;1.05;0.70;;;23.60;62.70;;;;;;5093328;28;20203;-39
2021/05/18 16:41:34;;;;;;;1.02;0.40;;;24.30;60.70;;;;;;5091687;28;20209;-39
2021/05/18 16:44:02;;;;;;;1.17;0.80;;;24.90;59.60;;;;;;5091704;28;20231;-39
2021/05/18 16:46:30;;;;;;;0.60;0.47;;;25.20;58.30;;;;;;5092221;28;20229;-39
2021/05/18 16:48:59;;;;;;;0.43;0.25;;;25.50;57.20;;;;;;5091648;28;20599;-39
2021/05/18 16:51:26;;;;;;;0.70;0.70;;;25.50;56.00;;;;;;5091644;28;20690;-40
2021/05/18 16:53:54;;;;;;;0.95;0.52;;;25.10;55.90;;;;;;5091831;28;20279;-38
2021/05/18 16:56:23;;;;;;;1.83;0.52;;;25.10;56.70;;;;;;5096393;28;20255;-41
2021/05/18 16:58:52;;;;;;;1.67;0.57;;;25.70;56.00;;;;;;5095744;28;20814;-40
2021/05/18 17:01:20;;;;;;;1.15;0.40;;;26.20;54.90;;;;;;5095980;28;20303;-40
2021/05/18 17:04:08;;;;;;;1.98;0.40;;;26.40;54.20;;;;;;5096018;28;20541;-40
2021/05/18 17:06:36;;;;;;;0.75;0.60;;;26.70;53.80;;;;;;5095365;28;20259;-40
2021/05/18 17:09:06;;;;;;;1.00;0.50;;;26.90;53.40;;;;;;5095466;28;20613;-39
2021/05/18 17:11:34;;;;;;;1.00;0.75;;;27.00;52.20;;;;;;5095223;28;20222;-39
2021/05/18 17:14:02;;;;;;;1.38;0.57;;;26.40;52.20;;;;;;5095623;28;20689;-39
2021/05/18 17:16:30;;;;;;;0.68;0.60;;;25.50;53.00;;;;;;5095479;28;20309;-40
2021/05/18 17:18:57;;;;;;;1.40;1.00;;;24.30;55.30;;;;;;5095346;28;20242;-40
2021/05/18 17:21:25;;;;;;;1.20;0.75;;;22.90;56.90;;;;;;5095492;28;20242;-40